Time;durP1;ratioP1;P1;durP2;ratioP2;P2;SDS_P1;SDS_P2;PMS_P1;PMS_P2;Temp;Humidity;BMP_temperature;BMP_pressure;BME280_temperature;BME280_humidity;BME280_pressure;Samples;Min_cycle;Max_cycle;Signal;HPM_P1;HPM_P2
2023/05/09 00:01:23;;;;;;;2.13;1.40;;;;;;;10.80;100.00;100710.66;5052455;28;20199;-78
2023/05/09 00:03:50;;;;;;;4.07;1.80;;;;;;;10.78;100.00;100707.13;5052534;28;20202;-77
2023/05/09 00:06:19;;;;;;;3.35;1.50;;;;;;;11.00;100.00;100701.59;5053016;28;20238;-76
2023/05/09 00:08:45;;;;;;;3.90;1.67;;;;;;;10.90;100.00;100704.84;5051719;28;20203;-77
2023/05/09 00:11:12;;;;;;;2.85;1.52;;;;;;;10.76;100.00;100703.63;5017110;28;20199;-77
2023/05/09 00:13:43;;;;;;;3.00;1.50;;;;;;;10.87;100.00;100689.19;5052440;28;20278;-77
2023/05/09 00:16:10;;;;;;;1.75;1.20;;;;;;;10.78;100.00;100702.81;5052270;28;20278;-78
2023/05/09 00:18:41;;;;;;;1.77;1.17;;;;;;;10.59;100.00;100641.00;5052370;28;20297;-76
2023/05/09 00:21:07;;;;;;;2.20;1.20;;;;;;;10.73;100.00;100682.81;5052776;28;20196;-76
2023/05/09 00:23:35;;;;;;;2.25;1.67;;;;;;;10.74;100.00;100705.28;5052655;28;20230;-77
2023/05/09 00:26:02;;;;;;;2.10;1.27;;;;;;;10.67;100.00;100700.81;5052206;28;20719;-77
2023/05/09 00:28:29;;;;;;;1.40;1.15;;;;;;;10.82;100.00;100708.97;5052510;28;20276;-77
2023/05/09 00:30:57;;;;;;;3.95;1.77;;;;;;;10.85;100.00;100712.50;5052534;28;20199;-77
2023/05/09 00:33:25;;;;;;;2.42;1.27;;;;;;;10.73;100.00;100714.81;5052222;28;20200;-77
2023/05/09 00:35:52;;;;;;;2.22;1.45;;;;;;;10.65;100.00;100707.69;5052212;28;20758;-77
2023/05/09 00:38:19;;;;;;;3.28;1.83;;;;;;;10.52;100.00;100703.91;5052352;28;20231;-78
2023/05/09 00:40:47;;;;;;;3.75;1.73;;;;;;;10.38;100.00;100690.59;5052199;28;20208;-76
2023/05/09 00:43:15;;;;;;;2.75;1.50;;;;;;;10.49;100.00;100701.22;5052200;28;20200;-77
2023/05/09 00:45:42;;;;;;;3.25;1.58;;;;;;;10.44;100.00;100703.72;5052085;28;20659;-77
2023/05/09 00:48:09;;;;;;;2.47;1.52;;;;;;;10.35;100.00;100711.25;5051993;28;20200;-77
2023/05/09 00:50:36;;;;;;;5.05;3.30;;;;;;;10.45;100.00;100708.03;5051577;28;20203;-77
2023/05/09 00:53:04;;;;;;;2.50;1.42;;;;;;;10.32;100.00;100687.84;5051724;28;20199;-77
2023/05/09 00:55:31;;;;;;;2.15;1.48;;;;;;;10.62;100.00;100710.19;5051927;28;20202;-77
2023/05/09 00:57:59;;;;;;;3.78;2.95;;;;;;;10.82;100.00;100709.84;5051480;28;20227;-77
2023/05/09 01:00:26;;;;;;;2.03;1.30;;;;;;;9.98;100.00;100625.59;5016559;28;20187;-77
2023/05/09 01:02:55;;;;;;;3.20;1.58;;;;;;;10.57;100.00;100711.78;5051108;28;20195;-77
2023/05/09 01:05:25;;;;;;;1.88;1.30;;;;;;;10.55;100.00;100714.38;5051526;28;20582;-78
2023/05/09 01:07:59;;;;;;;3.72;1.67;;;;;;;10.53;100.00;100679.72;5050795;28;20637;-77
2023/05/09 01:10:34;;;;;;;3.53;1.60;;;;;;;10.55;100.00;100709.19;5051138;28;20195;-77
2023/05/09 01:13:09;;;;;;;3.67;1.67;;;;;;;10.21;100.00;100689.28;5050791;28;20234;-77
2023/05/09 01:15:44;;;;;;;3.42;1.50;;;;;;;10.42;100.00;100718.34;5051411;28;20290;-77
2023/05/09 01:18:21;;;;;;;5.00;1.73;;;;;;;10.50;100.00;100710.75;5049953;28;20230;-76
2023/05/09 01:20:57;;;;;;;3.00;1.50;;;;;;;10.58;100.00;100714.44;5051365;28;20286;-78
2023/05/09 01:24:09;;;;;;;1.90;1.10;;;;;;;10.63;100.00;100722.34;5051769;28;20195;-77
2023/05/09 01:26:45;;;;;;;1.88;1.15;;;;;;;10.57;100.00;100712.66;5008468;28;20204;-77
2023/05/09 01:29:36;;;;;;;3.05;1.45;;;;;;;10.63;100.00;100711.97;5010721;28;20829;-77
2023/05/09 01:32:07;;;;;;;3.72;1.58;;;;;;;10.45;100.00;100699.41;4956825;28;20581;-77
2023/05/09 01:34:35;;;;;;;2.25;1.27;;;;;;;10.67;100.00;100713.78;4971503;28;20194;-77
2023/05/09 01:37:05;;;;;;;2.95;1.40;;;;;;;10.72;100.00;100717.38;4972463;28;20206;-77
2023/05/09 01:39:34;;;;;;;2.17;1.15;;;;;;;10.50;100.00;100709.88;4970052;28;20712;-78
2023/05/09 01:42:04;;;;;;;4.70;1.73;;;;;;;10.50;100.00;100700.41;4969730;28;20210;-76
2023/05/09 01:44:38;;;;;;;1.25;1.13;;;;;;;10.49;100.00;100710.75;4969679;28;20213;-78
2023/05/09 01:47:07;;;;;;;2.67;1.38;;;;;;;10.37;100.00;100711.31;4970038;28;20205;-78
2023/05/09 01:49:36;;;;;;;2.13;1.20;;;;;;;10.51;100.00;100706.47;4970014;28;20238;-78
2023/05/09 01:52:08;;;;;;;2.95;1.30;;;;;;;10.64;100.00;100713.69;4969785;28;20694;-77
2023/05/09 01:54:37;;;;;;;1.75;1.10;;;;;;;10.44;100.00;100700.25;4969202;28;20205;-77
2023/05/09 01:57:05;;;;;;;3.55;1.50;;;;;;;10.52;100.00;100687.47;4969760;28;20253;-77
2023/05/09 01:59:34;;;;;;;3.35;1.50;;;;;;;10.55;100.00;100719.56;4969197;28;20218;-77
2023/05/09 02:02:03;;;;;;;3.70;1.58;;;;;;;10.56;100.00;100715.25;4988013;28;20236;-78
2023/05/09 02:04:31;;;;;;;1.48;1.00;;;;;;;10.21;100.00;100686.69;5008313;28;20222;-78
2023/05/09 02:06:59;;;;;;;2.67;1.30;;;;;;;10.50;100.00;100730.63;5008675;28;20204;-78
2023/05/09 02:09:26;;;;;;;2.78;1.30;;;;;;;10.39;100.00;100731.22;5037458;28;20218;-78
2023/05/09 02:11:53;;;;;;;3.10;1.40;;;;;;;10.36;100.00;100733.75;5050873;28;20552;-78
2023/05/09 02:14:20;;;;;;;3.50;1.52;;;;;;;10.32;100.00;100736.22;5050796;28;20607;-77
2023/05/09 02:16:47;;;;;;;4.28;1.67;;;;;;;10.37;100.00;100719.06;5050719;28;20282;-76
2023/05/09 02:19:16;;;;;;;2.72;1.42;;;;;;;10.53;100.00;100741.06;5050766;28;20272;-75
2023/05/09 02:21:43;;;;;;;2.33;1.30;;;;;;;10.50;100.00;100736.69;5050250;28;20634;-77
2023/05/09 02:24:10;;;;;;;2.65;1.33;;;;;;;10.41;100.00;100737.34;5050733;28;20211;-76
2023/05/09 02:26:38;;;;;;;2.72;1.40;;;;;;;10.42;100.00;100739.09;5051045;28;20276;-77
2023/05/09 02:29:07;;;;;;;2.80;1.30;;;;;;;10.29;100.00;100723.19;5050638;28;20246;-77
2023/05/09 02:31:35;;;;;;;3.13;1.45;;;;;;;10.55;100.00;100731.63;5051353;28;20195;-76
2023/05/09 02:34:04;;;;;;;3.28;1.50;;;;;;;10.33;100.00;100743.16;5050843;28;20199;-76
2023/05/09 02:36:32;;;;;;;3.97;1.98;;;;;;;10.15;100.00;100732.31;5051067;28;20287;-76
2023/05/09 02:39:00;;;;;;;3.22;1.50;;;;;;;10.14;100.00;100734.00;5015770;28;20235;-77
2023/05/09 02:41:27;;;;;;;3.35;1.40;;;;;;;10.22;100.00;100740.28;5050738;28;20269;-77
2023/05/09 02:43:54;;;;;;;3.60;1.63;;;;;;;10.23;100.00;100723.91;5050397;28;20203;-77
2023/05/09 02:46:21;;;;;;;0.85;0.85;;;;;;;10.32;100.00;100747.47;5050268;28;20234;-77
2023/05/09 02:48:48;;;;;;;3.03;1.33;;;;;;;10.11;100.00;100720.06;5049800;28;20207;-77
2023/05/09 02:51:15;;;;;;;2.47;1.35;;;;;;;10.32;100.00;100741.41;5049801;28;20207;-76
2023/05/09 02:53:43;;;;;;;2.85;1.40;;;;;;;10.12;100.00;100716.63;5015436;28;20203;-77
2023/05/09 02:56:10;;;;;;;1.58;1.10;;;;;;;10.38;100.00;100752.78;5050282;28;20207;-76
2023/05/09 02:58:37;;;;;;;2.53;1.40;;;;;;;10.19;100.00;100745.38;5049864;28;20254;-77
2023/05/09 03:01:04;;;;;;;2.05;1.20;;;;;;;10.29;100.00;100749.97;5050289;28;20206;-77
2023/05/09 03:03:33;;;;;;;2.30;1.30;;;;;;;10.40;100.00;100755.44;5050698;28;20199;-77
2023/05/09 03:06:00;;;;;;;5.55;2.03;;;;;;;10.25;100.00;100753.31;5051098;28;20290;-77
2023/05/09 03:08:27;;;;;;;4.70;1.70;;;;;;;10.22;100.00;100762.72;5052929;28;20211;-77
2023/05/09 03:10:55;;;;;;;5.43;1.70;;;;;;;10.24;100.00;100767.09;5052602;28;20667;-77
2023/05/09 03:13:22;;;;;;;7.15;1.90;;;;;;;10.17;100.00;100770.38;5054028;28;20207;-76
2023/05/09 03:15:48;;;;;;;4.85;1.52;;;;;;;9.84;100.00;100705.53;5053574;28;20317;-77
2023/05/09 03:18:15;;;;;;;7.05;1.92;;;;;;;10.15;100.00;100764.28;5051600;28;20208;-76
2023/05/09 03:20:42;;;;;;;4.32;1.58;;;;;;;10.17;100.00;100783.31;5052986;28;20207;-76
2023/05/09 03:23:09;;;;;;;6.65;1.92;;;;;;;10.26;100.00;100775.81;5053373;28;20199;-77
2023/05/09 03:25:35;;;;;;;5.53;1.63;;;;;;;10.07;100.00;100776.09;5053861;28;20219;-76
2023/05/09 03:28:04;;;;;;;6.65;1.83;;;;;;;10.13;100.00;100765.91;5034270;28;20235;-77
2023/05/09 03:30:31;;;;;;;5.05;1.70;;;;;;;10.23;100.00;100799.06;5053551;28;20203;-77
2023/05/09 03:32:57;;;;;;;9.20;2.70;;;;;;;10.25;100.00;100775.75;5053546;28;20199;-77
2023/05/09 03:35:24;;;;;;;5.63;1.55;;;;;;;10.13;100.00;100797.00;5053322;28;20203;-77
2023/05/09 03:37:51;;;;;;;6.18;1.65;;;;;;;10.01;100.00;100762.09;5053007;28;20210;-76
2023/05/09 03:40:18;;;;;;;6.47;1.77;;;;;;;10.27;100.00;100800.88;5052825;28;20223;-76
2023/05/09 03:42:44;;;;;;;4.82;1.63;;;;;;;10.19;100.00;100805.00;5052968;28;20257;-76
2023/05/09 03:45:13;;;;;;;6.00;1.70;;;;;;;10.18;100.00;100800.63;5052910;28;20210;-76
2023/05/09 03:47:40;;;;;;;4.47;1.60;;;;;;;10.06;100.00;100792.47;5052896;28;20192;-76
2023/05/09 03:50:08;;;;;;;5.57;1.75;;;;;;;10.12;100.00;100794.38;5053064;28;20215;-75
2023/05/09 03:52:36;;;;;;;6.85;1.90;;;;;;;9.97;100.00;100784.44;5033979;28;20633;-77
2023/05/09 03:55:02;;;;;;;6.88;1.98;;;;;;;10.08;100.00;100810.66;5050510;28;20211;-77
2023/05/09 03:57:29;;;;;;;3.78;1.42;;;;;;;10.11;100.00;100809.03;5052667;28;20200;-78
2023/05/09 03:59:56;;;;;;;4.93;1.60;;;;;;;10.02;100.00;100824.34;5052023;28;20230;-77
2023/05/09 04:02:24;;;;;;;8.50;2.10;;;;;;;10.13;100.00;100817.72;5052587;28;20191;-77
2023/05/09 04:04:51;;;;;;;9.50;2.83;;;;;;;10.10;100.00;100822.81;5016585;28;20196;-77
2023/05/09 04:07:19;;;;;;;3.58;1.55;;;;;;;10.21;100.00;100826.63;5052006;28;20196;-76
2023/05/09 04:09:46;;;;;;;5.72;1.60;;;;;;;10.19;100.00;100830.91;5051869;28;20227;-77
2023/05/09 04:12:13;;;;;;;3.63;1.30;;;;;;;10.15;100.00;100834.25;5034208;28;20200;-75
2023/05/09 04:14:39;;;;;;;5.38;1.60;;;;;;;10.35;100.00;100837.38;5017529;28;20203;-76
2023/05/09 04:17:06;;;;;;;4.57;1.48;;;;;;;10.30;100.00;100837.28;5052342;28;20195;-77
2023/05/09 04:19:34;;;;;;;4.72;2.03;;;;;;;10.35;100.00;100843.44;5052078;28;20230;-76
2023/05/09 04:22:01;;;;;;;3.58;1.30;;;;;;;10.28;100.00;100838.94;5052485;28;20277;-75
2023/05/09 04:24:28;;;;;;;2.55;1.17;;;;;;;10.33;100.00;100839.94;5052632;28;20192;-77
2023/05/09 04:26:54;;;;;;;3.40;1.20;;;;;;;9.93;100.00;100803.31;5050450;28;20207;-79
2023/05/09 04:29:21;;;;;;;3.05;1.10;;;;;;;10.39;100.00;100847.00;5052396;28;20710;-77
2023/05/09 04:31:48;;;;;;;3.17;1.25;;;;;;;10.41;100.00;100828.09;5052455;28;20203;-77
2023/05/09 04:34:15;;;;;;;2.03;1.20;;;;;;;10.22;100.00;100818.03;5052423;28;20207;-77
2023/05/09 04:36:43;;;;;;;1.85;1.02;;;;;;;10.36;100.00;100853.00;5052450;28;20210;-77
2023/05/09 04:39:10;;;;;;;3.92;1.33;;;;;;;9.91;100.00;100810.19;5017569;28;20235;-77
2023/05/09 04:41:37;;;;;;;1.17;0.88;;;;;;;10.29;100.00;100851.06;5052743;28;20245;-77
2023/05/09 04:44:04;;;;;;;1.33;1.10;;;;;;;10.25;100.00;100849.22;5052616;28;20269;-77
2023/05/09 04:46:31;;;;;;;2.40;1.17;;;;;;;10.19;100.00;100843.88;5052070;28;20199;-78
2023/05/09 04:48:57;;;;;;;2.42;1.10;;;;;;;10.33;100.00;100852.03;5052499;28;20202;-73
2023/05/09 04:51:24;;;;;;;0.68;0.68;;;;;;;10.94;100.00;100844.19;5051672;28;20200;-70
2023/05/09 04:53:53;;;;;;;1.20;0.90;;;;;;;10.64;100.00;100856.31;5051980;28;20199;-76
2023/05/09 04:56:20;;;;;;;3.13;2.00;;;;;;;10.37;100.00;100861.66;5050094;28;20200;-70
2023/05/09 04:58:47;;;;;;;5.90;1.55;;;;;;;10.38;100.00;100863.41;5049513;28;20203;-67
2023/05/09 05:01:14;;;;;;;5.35;1.52;;;;;;;10.37;100.00;100867.72;5042979;28;20704;-75
2023/05/09 05:03:41;;;;;;;1.40;1.23;;;;;;;10.26;100.00;100860.47;5051723;28;20198;-76
2023/05/09 05:06:08;;;;;;;10.23;2.25;;;;;;;10.20;100.00;100866.31;5055641;28;20199;-75
2023/05/09 05:08:35;;;;;;;14.77;2.08;;;;;;;10.29;100.00;100860.53;5054120;28;20234;-77
2023/05/09 05:11:03;;;;;;;18.10;2.15;;;;;;;10.25;100.00;100866.47;5052605;28;20218;-77
2023/05/09 05:13:30;;;;;;;15.60;2.20;;;;;;;10.21;100.00;100867.22;5044404;28;20210;-76
2023/05/09 05:15:57;;;;;;;19.45;2.45;;;;;;;10.15;100.00;100852.38;5064807;28;20587;-75
2023/05/09 05:18:24;;;;;;;10.80;1.63;;;;;;;10.19;100.00;100861.13;5052670;28;20238;-76
2023/05/09 05:20:51;;;;;;;11.50;1.75;;;;;;;10.31;100.00;100866.63;5055425;28;20227;-69
2023/05/09 05:23:18;;;;;;;6.15;1.17;;;;;;;10.40;100.00;100865.19;5057314;28;20279;-75
2023/05/09 05:25:46;;;;;;;8.57;2.88;;;;;;;10.44;100.00;100866.16;5054419;28;20601;-74
2023/05/09 05:28:14;;;;;;;5.28;1.77;;;;;;;10.44;100.00;100869.66;5063976;28;20238;-76
2023/05/09 05:30:41;;;;;;;1.42;1.15;;;;;;;10.15;100.00;100847.19;5053529;28;20211;-74
2023/05/09 05:33:08;;;;;;;4.05;1.92;;;;;;;10.47;100.00;100867.97;5045285;28;20552;-72
2023/05/09 05:35:35;;;;;;;1.85;1.33;;;;;;;10.51;100.00;100856.84;5024956;28;20203;-71
2023/05/09 05:38:02;;;;;;;1.83;1.40;;;;;;;10.68;100.00;100878.91;5044176;28;20281;-69
2023/05/09 05:40:29;;;;;;;2.05;1.42;;;;;;;10.67;100.00;100880.63;5050041;28;20611;-68
2023/05/09 05:42:55;;;;;;;2.08;1.45;;;;;;;10.28;100.00;100858.78;5014243;28;20268;-68
2023/05/09 05:45:24;;;;;;;1.50;1.40;;;;;;;10.50;100.00;100878.41;5031121;28;20207;-68
2023/05/09 05:47:51;;;;;;;1.85;1.10;;;;;;;10.37;100.00;100887.56;5065318;28;20665;-69
2023/05/09 05:50:17;;;;;;;2.30;1.30;;;;;;;10.38;100.00;100851.31;5070471;28;20202;-68
2023/05/09 05:52:44;;;;;;;1.30;1.20;;;;;;;10.29;100.00;100889.94;5070803;28;20214;-76
2023/05/09 05:55:11;;;;;;;1.98;1.23;;;;;;;10.44;100.00;100887.78;5064195;28;20192;-76
2023/05/09 05:57:38;;;;;;;2.53;1.38;;;;;;;10.33;100.00;100858.09;5064243;28;20194;-76
2023/05/09 06:00:07;;;;;;;6.53;2.33;;;;;;;10.52;100.00;100887.13;5059843;28;20570;-75
2023/05/09 06:02:36;;;;;;;2.50;1.30;;;;;;;10.44;100.00;100861.88;5032264;28;20207;-76
2023/05/09 06:05:03;;;;;;;3.30;1.55;;;;;;;10.64;100.00;100884.84;5046270;28;20200;-76
2023/05/09 06:07:30;;;;;;;2.35;1.35;;;;;;;10.59;100.00;100892.53;5049846;28;20227;-77
2023/05/09 06:09:57;;;;;;;2.42;1.25;;;;;;;10.38;100.00;100845.28;5050759;28;20199;-77
2023/05/09 06:12:23;;;;;;;1.13;1.00;;;;;;;10.54;100.00;100893.22;5049554;28;20659;-77
2023/05/09 06:14:50;;;;;;;3.95;2.53;;;;;;;10.40;100.00;100885.06;5060446;28;20650;-77
2023/05/09 06:17:17;;;;;;;1.83;1.13;;;;;;;10.44;100.00;100892.09;5050898;28;20212;-76
2023/05/09 06:19:45;;;;;;;2.97;1.98;;;;;;;10.48;100.00;100885.28;5024574;28;20231;-76
2023/05/09 06:22:12;;;;;;;5.15;2.00;;;;;;;10.50;100.00;100881.88;5045527;28;20203;-76
2023/05/09 06:24:38;;;;;;;1.77;1.20;;;;;;;10.59;100.00;100874.38;5050806;28;20208;-76
2023/05/09 06:27:05;;;;;;;2.20;1.38;;;;;;;10.65;100.00;100887.50;5050808;28;20207;-76
2023/05/09 06:29:32;;;;;;;1.20;1.15;;;;;;;10.48;100.00;100878.38;5050528;28;20301;-76
2023/05/09 06:31:59;;;;;;;1.83;1.63;;;;;;;10.45;100.00;100889.53;5050820;28;20211;-76
2023/05/09 06:34:26;;;;;;;1.15;1.05;;;;;;;10.56;100.00;100892.41;5050810;28;20208;-76
2023/05/09 06:36:54;;;;;;;1.10;1.00;;;;;;;10.51;100.00;100875.00;5061216;28;20260;-75
2023/05/09 06:39:21;;;;;;;1.35;1.25;;;;;;;10.60;100.00;100877.81;5068670;28;20623;-76
2023/05/09 06:41:47;;;;;;;1.10;1.00;;;;;;;10.71;100.00;100897.16;5066820;28;20202;-76
2023/05/09 06:44:14;;;;;;;1.40;1.30;;;;;;;10.74;100.00;100902.41;5054592;28;20645;-77
2023/05/09 06:46:41;;;;;;;2.63;1.83;;;;;;;10.89;100.00;100889.88;5052673;28;20285;-77
2023/05/09 06:49:08;;;;;;;1.20;1.10;;;;;;;10.84;100.00;100910.50;5052175;28;20659;-77
2023/05/09 06:51:35;;;;;;;1.08;0.98;;;;;;;10.85;100.00;100899.28;5053883;28;20203;-77
2023/05/09 06:54:03;;;;;;;2.28;1.88;;;;;;;10.89;100.00;100898.53;5049336;28;20268;-77
2023/05/09 06:56:30;;;;;;;1.70;1.30;;;;;;;10.88;100.00;100907.16;5055224;28;20200;-77
2023/05/09 06:58:57;;;;;;;2.03;1.20;;;;;;;10.77;100.00;100894.75;5062091;28;20210;-77
2023/05/09 07:01:24;;;;;;;1.30;1.02;;;;;;;10.71;100.00;100903.22;5068868;28;20274;-77
2023/05/09 07:03:51;;;;;;;2.40;1.40;;;;;;;10.86;100.00;100898.47;5063437;28;20199;-76
2023/05/09 07:06:17;;;;;;;1.00;0.93;;;;;;;10.76;100.00;100877.41;5072645;28;20261;-76
2023/05/09 07:08:44;;;;;;;1.55;1.13;;;;;;;10.98;100.00;100904.81;5057500;28;20265;-77
2023/05/09 07:11:12;;;;;;;1.33;1.33;;;;;;;11.18;100.00;100906.19;5049815;28;20298;-76
2023/05/09 07:13:39;;;;;;;0.90;0.90;;;;;;;10.98;100.00;100907.41;5051561;28;20195;-76
2023/05/09 07:16:06;;;;;;;1.85;1.30;;;;;;;10.90;100.00;100904.59;5045633;28;20732;-77
2023/05/09 07:18:33;;;;;;;2.03;1.30;;;;;;;10.85;100.00;100895.81;5059235;28;20662;-76
2023/05/09 07:21:00;;;;;;;1.67;1.30;;;;;;;10.87;100.00;100905.41;5053748;28;20590;-75
2023/05/09 07:23:26;;;;;;;1.05;0.88;;;;;;;10.91;100.00;100911.56;5053545;28;20195;-75
2023/05/09 07:25:57;;;;;;;1.48;1.13;;;;;;;11.10;100.00;100899.94;5053504;28;20211;-77
2023/05/09 07:28:25;;;;;;;1.05;0.98;;;;;;;11.10;100.00;100912.91;5052480;28;20258;-76
2023/05/09 07:30:52;;;;;;;2.03;1.77;;;;;;;11.00;100.00;100906.59;5053459;28;20210;-68
2023/05/09 07:33:19;;;;;;;1.30;1.20;;;;;;;11.02;100.00;100873.81;5049966;28;20196;-68
2023/05/09 07:35:46;;;;;;;1.90;1.38;;;;;;;11.18;100.00;100898.41;5051601;28;20203;-68
2023/05/09 07:38:13;;;;;;;2.83;1.60;;;;;;;10.92;100.00;100905.50;5050613;28;20238;-68
2023/05/09 07:40:40;;;;;;;2.60;1.38;;;;;;;11.00;100.00;100880.66;5043859;28;20231;-76
2023/05/09 07:43:07;;;;;;;2.28;1.40;;;;;;;11.42;100.00;100897.31;5052959;28;20210;-76
2023/05/09 07:45:35;;;;;;;2.17;1.85;;;;;;;11.39;100.00;100911.94;5053011;28;20345;-77
2023/05/09 07:48:02;;;;;;;1.95;1.25;;;;;;;11.43;100.00;100912.06;5053096;28;20211;-77
2023/05/09 07:50:29;;;;;;;1.90;1.50;;;;;;;11.09;100.00;100896.47;5048496;28;20203;-77
2023/05/09 07:52:55;;;;;;;1.17;1.08;;;;;;;11.14;100.00;100905.25;5042951;28;20223;-75
2023/05/09 07:55:22;;;;;;;2.65;1.60;;;;;;;11.30;100.00;100904.81;5045266;28;20573;-76
2023/05/09 07:57:49;;;;;;;2.40;1.45;;;;;;;11.35;100.00;100912.69;5050942;28;20285;-78
2023/05/09 08:00:17;;;;;;;1.80;1.30;;;;;;;11.47;100.00;100914.72;5051535;28;20227;-77
2023/05/09 08:02:45;;;;;;;2.95;1.70;;;;;;;11.33;100.00;100907.47;5051997;28;20204;-77
2023/05/09 08:05:12;;;;;;;1.33;1.10;;;;;;;11.11;100.00;100897.38;5063783;28;20572;-76
2023/05/09 08:07:39;;;;;;;3.42;1.55;;;;;;;11.10;100.00;100893.03;5060047;28;20197;-76
2023/05/09 08:10:07;;;;;;;2.78;1.48;;;;;;;11.31;100.00;100914.34;5071667;28;20206;-77
2023/05/09 08:12:33;;;;;;;2.83;1.60;;;;;;;11.29;100.00;100908.25;5023428;28;20215;-76
2023/05/09 08:15:00;;;;;;;1.88;1.48;;;;;;;11.44;100.00;100920.72;5036382;28;20210;-77
2023/05/09 08:17:27;;;;;;;1.17;1.13;;;;;;;11.40;100.00;100917.19;5063477;28;20574;-75
2023/05/09 08:19:55;;;;;;;1.10;1.10;;;;;;;11.59;100.00;100884.75;5071480;28;20210;-76
2023/05/09 08:22:23;;;;;;;1.30;1.20;;;;;;;11.82;100.00;100929.47;5066218;28;20206;-77
2023/05/09 08:24:50;;;;;;;0.85;0.82;;;;;;;12.03;100.00;100926.47;5060909;28;20199;-76
2023/05/09 08:27:17;;;;;;;1.73;1.60;;;;;;;12.31;100.00;100924.53;5045218;28;20207;-75
2023/05/09 08:29:43;;;;;;;0.95;0.95;;;;;;;12.14;100.00;100922.41;5045657;28;20235;-76
2023/05/09 08:32:11;;;;;;;1.20;1.10;;;;;;;12.21;100.00;100922.56;5052681;28;20294;-76
2023/05/09 08:34:37;;;;;;;2.33;1.58;;;;;;;12.06;100.00;100923.94;5064209;28;20192;-75
2023/05/09 08:37:06;;;;;;;2.15;1.83;;;;;;;12.38;100.00;100928.13;5051747;28;20195;-75
2023/05/09 08:39:33;;;;;;;1.40;1.25;;;;;;;12.20;100.00;100933.81;5051814;28;20221;-75
2023/05/09 08:42:01;;;;;;;1.77;1.40;;;;;;;12.09;100.00;100924.03;5051085;28;20258;-75
2023/05/09 08:44:30;;;;;;;1.40;1.30;;;;;;;12.23;100.00;100918.31;5051368;28;20206;-77
2023/05/09 08:46:59;;;;;;;1.45;1.35;;;;;;;12.24;100.00;100920.03;5032747;28;20681;-75
2023/05/09 08:49:26;;;;;;;1.55;1.45;;;;;;;12.53;100.00;100918.03;5050260;28;20196;-76
2023/05/09 08:51:54;;;;;;;1.85;1.35;;;;;;;12.35;100.00;100915.94;5044918;28;20216;-76
2023/05/09 08:54:23;;;;;;;2.28;1.58;;;;;;;12.78;100.00;100925.50;5048919;28;20686;-75
2023/05/09 08:56:50;;;;;;;1.45;1.30;;;;;;;12.88;100.00;100927.41;5046463;28;20207;-76
2023/05/09 08:59:18;;;;;;;2.38;1.60;;;;;;;12.89;100.00;100936.13;5049819;28;20207;-77
2023/05/09 09:01:45;;;;;;;0.90;0.90;;;;;;;12.77;100.00;100933.28;5054393;28;20307;-77
2023/05/09 09:04:12;;;;;;;1.40;1.30;;;;;;;12.99;100.00;100934.56;5057875;28;20641;-76
2023/05/09 09:06:40;;;;;;;1.73;1.45;;;;;;;13.11;100.00;100940.91;5066442;28;20199;-75
2023/05/09 09:09:08;;;;;;;1.35;1.25;;;;;;;13.23;100.00;100940.28;5065609;28;20210;-75
2023/05/09 09:11:38;;;;;;;1.42;1.23;;;;;;;13.38;100.00;100944.00;5051235;28;20231;-76
2023/05/09 09:14:11;;;;;;;1.00;1.00;;;;;;;13.39;100.00;100937.94;5066233;28;20292;-76
2023/05/09 09:16:38;;;;;;;1.40;1.27;;;;;;;13.26;100.00;100936.00;5071167;28;20287;-77
2023/05/09 09:19:08;;;;;;;1.30;1.20;;;;;;;13.05;100.00;100914.75;5070974;28;20203;-75
2023/05/09 09:21:36;;;;;;;1.20;1.10;;;;;;;13.14;100.00;100903.63;5050970;28;20223;-75
2023/05/09 09:24:04;;;;;;;1.98;1.50;;;;;;;13.56;100.00;100903.47;5064426;28;20213;-75
2023/05/09 09:26:31;;;;;;;1.33;1.23;;;;;;;13.55;100.00;100912.16;5057214;28;20203;-75
2023/05/09 09:28:59;;;;;;;1.20;1.10;;;;;;;13.66;100.00;100921.03;5024207;28;20231;-76
2023/05/09 09:31:31;;;;;;;1.45;1.27;;;;;;;13.20;100.00;100929.78;5055298;28;20225;-75
2023/05/09 09:34:02;;;;;;;1.08;1.02;;;;;;;13.36;100.00;100927.47;5060458;28;20238;-78
2023/05/09 09:36:31;;;;;;;1.15;1.15;;;;;;;13.10;100.00;100928.72;5069220;28;20692;-77
2023/05/09 09:39:00;;;;;;;1.25;1.20;;;;;;;13.07;100.00;100915.63;5070967;28;20256;-69
2023/05/09 09:41:31;;;;;;;0.85;0.85;;;;;;;13.37;100.00;100929.25;5067983;28;20261;-68
2023/05/09 09:44:06;;;;;;;1.10;1.10;;;;;;;13.48;100.00;100937.25;5060051;28;20239;-68
2023/05/09 09:46:41;;;;;;;1.38;1.27;;;;;;;13.64;100.00;100941.84;5056508;28;20229;-77
2023/05/09 09:49:09;;;;;;;1.35;1.25;;;;;;;13.16;100.00;100845.50;5061595;28;20670;-78
2023/05/09 09:51:36;;;;;;;2.30;1.90;;;;;;;13.73;100.00;100933.31;5070413;28;20214;-77
2023/05/09 09:54:03;;;;;;;1.75;1.65;;;;;;;13.60;100.00;100941.75;5062754;28;20204;-78
2023/05/09 09:56:39;;;;;;;1.30;1.20;;;;;;;13.92;100.00;100924.91;5051074;28;20290;-77
2023/05/09 09:59:12;;;;;;;1.30;1.20;;;;;;;13.76;100.00;100946.38;5062723;28;20264;-77
2023/05/09 10:01:59;;;;;;;1.20;1.20;;;;;;;13.45;100.00;100937.16;5065527;28;20230;-77
2023/05/09 10:04:29;;;;;;;1.20;1.20;;;;;;;13.23;100.00;100914.22;5066597;28;20199;-76
2023/05/09 10:06:56;;;;;;;1.02;1.02;;;;;;;13.20;100.00;100909.81;5070857;28;20302;-76
2023/05/09 10:09:23;;;;;;;1.10;1.10;;;;;;;13.56;100.00;100929.53;5056335;28;20195;-78
2023/05/09 10:11:51;;;;;;;0.80;0.80;;;;;;;13.72;100.00;100929.81;5070676;28;20206;-77
2023/05/09 10:14:22;;;;;;;1.00;1.00;;;;;;;13.91;100.00;100913.59;5018347;28;20223;-77
2023/05/09 10:16:49;;;;;;;0.93;0.93;;;;;;;14.31;100.00;100940.22;5054632;28;20286;-76
2023/05/09 10:19:19;;;;;;;1.50;1.50;;;;;;;14.29;100.00;100945.44;5054469;28;20202;-78
2023/05/09 10:21:51;;;;;;;0.85;0.85;;;;;;;14.41;100.00;100941.28;5054464;28;20231;-76
2023/05/09 10:24:22;;;;;;;1.10;1.10;;;;;;;13.75;100.00;100910.72;5055907;28;20199;-77
2023/05/09 10:26:52;;;;;;;1.13;1.13;;;;;;;13.98;100.00;100943.25;5066525;28;20231;-78
2023/05/09 10:29:25;;;;;;;1.10;1.10;;;;;;;14.06;100.00;100948.56;5054763;28;20235;-77
2023/05/09 10:31:58;;;;;;;0.75;0.75;;;;;;;14.21;100.00;100949.66;5074125;28;20211;-76
2023/05/09 10:34:27;;;;;;;0.93;0.93;;;;;;;14.35;100.00;100950.78;5060061;28;20207;-78
2023/05/09 10:36:54;;;;;;;1.10;1.10;;;;;;;14.59;100.00;100938.91;5074150;28;20573;-77
2023/05/09 10:39:23;;;;;;;1.10;1.10;;;;;;;15.15;100.00;100929.09;5073924;28;20226;-77
2023/05/09 10:41:50;;;;;;;0.80;0.80;;;;;;;15.38;100.00;100956.31;5074074;28;20695;-68
2023/05/09 10:44:17;;;;;;;1.20;1.20;;;;;;;15.08;100.00;100958.63;5074087;28;20195;-68
2023/05/09 10:46:46;;;;;;;0.90;0.90;;;;;;;14.85;100.00;100927.91;5074082;28;20195;-70
2023/05/09 10:49:14;;;;;;;1.00;1.00;;;;;;;14.99;100.00;100964.59;5038931;28;20260;-76
2023/05/09 10:51:40;;;;;;;1.25;1.25;;;;;;;15.39;100.00;100953.72;5074238;28;20214;-76
2023/05/09 10:54:14;;;;;;;1.10;1.10;;;;;;;15.09;100.00;100956.00;5073888;28;20191;-78
2023/05/09 10:56:41;;;;;;;1.00;1.00;;;;;;;14.81;100.00;100939.16;5073943;28;20226;-76
2023/05/09 10:59:36;;;;;;;1.02;1.02;;;;;;;15.22;100.00;100947.47;5074033;28;20264;-77
2023/05/09 11:02:05;;;;;;;1.35;1.35;;;;;;;15.46;100.00;100944.19;5073853;28;20226;-76
2023/05/09 11:04:32;;;;;;;1.00;1.00;;;;;;;15.74;100.00;100942.72;5073913;28;20655;-77
2023/05/09 11:07:00;;;;;;;1.10;1.10;;;;;;;16.05;100.00;100939.44;5073896;28;20222;-77
2023/05/09 11:09:32;;;;;;;0.90;0.90;;;;;;;16.19;100.00;100932.59;5073814;28;20195;-79
2023/05/09 11:12:07;;;;;;;1.10;1.10;;;;;;;15.94;100.00;100930.69;5073694;28;20252;-76
2023/05/09 11:14:39;;;;;;;0.90;0.90;;;;;;;15.75;100.00;100931.41;5073719;28;20218;-74
2023/05/09 11:17:09;;;;;;;1.13;1.13;;;;;;;16.08;100.00;100915.06;5073658;28;20290;-75
2023/05/09 11:19:58;;;;;;;1.00;1.00;;;;;;;16.21;100.00;100933.44;5073374;28;20287;-77
2023/05/09 11:22:26;;;;;;;1.30;1.30;;;;;;;16.37;100.00;100932.66;5073338;28;20321;-75